SWA2542 KMCI-KMCO
Flight info
| Callsign | SWA2542 |
|---|---|
| Flight time | 2h 5m |
| Altitude | 37000 |
| Route | RACER8 SGF DGD LUKKY Q116 MEMFS MGMRY DEEDA GRNCH5 |
| Aircraft | B738/M-SADE2E3GIJ4RWZ/LB1D1 |
Departure
| Time | 2026-04-20 13:38 |
|---|---|
| Airport | Kansas City International Airport (KMCI) |
Arrival
| Time | 2026-04-20 15:44 |
|---|---|
| Airport | Orlando International Airport (KMCO) |
| Time | Latitude | Longitude | Altitude | Speed | Heading |
|---|---|---|---|---|---|
| 2026-04-20 13:14 | 39.29496 | -94.71122 | 1014 ft | 0 kts | 256° |
| 2026-04-20 13:30 | 39.29500 | -94.71107 | 1013 ft | 4 kts | 231° |
| 2026-04-20 13:30 | 39.29501 | -94.71097 | 1013 ft | 4 kts | 131° |
| 2026-04-20 13:30 | 39.29519 | -94.71123 | 1013 ft | 4 kts | 143° |
| 2026-04-20 13:31 | 39.29530 | -94.71132 | 1013 ft | 1 kts | 153° |
| 2026-04-20 13:33 | 39.29519 | -94.71121 | 1013 ft | 6 kts | 136° |
| 2026-04-20 13:33 | 39.29487 | -94.71078 | 1013 ft | 7 kts | 142° |
| 2026-04-20 13:34 | 39.29447 | -94.71042 | 1014 ft | 7 kts | 138° |
| 2026-04-20 13:34 | 39.29432 | -94.70969 | 1013 ft | 11 kts | 70° |
| 2026-04-20 13:34 | 39.29448 | -94.70872 | 1011 ft | 12 kts | 86° |
| 2026-04-20 13:34 | 39.29477 | -94.70775 | 1010 ft | 13 kts | 38° |
| 2026-04-20 13:35 | 39.29568 | -94.70741 | 1008 ft | 15 kts | 13° |
| 2026-04-20 13:35 | 39.29676 | -94.70709 | 1006 ft | 17 kts | 13° |
| 2026-04-20 13:35 | 39.29802 | -94.70672 | 1004 ft | 20 kts | 13° |
| 2026-04-20 13:35 | 39.29943 | -94.70631 | 1001 ft | 22 kts | 12° |
| 2026-04-20 13:36 | 39.30098 | -94.70587 | 1001 ft | 23 kts | 15° |
| 2026-04-20 13:36 | 39.30250 | -94.70537 | 996 ft | 22 kts | 11° |
| 2026-04-20 13:36 | 39.30400 | -94.70495 | 996 ft | 22 kts | 12° |
| 2026-04-20 13:36 | 39.30499 | -94.70467 | 994 ft | 21 kts | 13° |
| 2026-04-20 13:37 | 39.30680 | -94.70412 | 988 ft | 18 kts | 13° |
| 2026-04-20 13:37 | 39.30729 | -94.70365 | 988 ft | 12 kts | 70° |
| 2026-04-20 13:37 | 39.30702 | -94.70265 | 988 ft | 12 kts | 102° |
| 2026-04-20 13:37 | 39.30672 | -94.70167 | 992 ft | 12 kts | 140° |
| 2026-04-20 13:38 | 39.30584 | -94.70180 | 993 ft | 22 kts | 193° |
| 2026-04-20 13:38 | 39.30207 | -94.70292 | 997 ft | 93 kts | 193° |
| 2026-04-20 13:38 | 39.29345 | -94.70539 | 1070 ft | 149 kts | 190° |
| 2026-04-20 13:38 | 39.28334 | -94.70842 | 1892 ft | 147 kts | 194° |
| 2026-04-20 13:39 | 39.27365 | -94.71138 | 2912 ft | 146 kts | 196° |
| 2026-04-20 13:39 | 39.26307 | -94.71383 | 3414 ft | 173 kts | 194° |
| 2026-04-20 13:39 | 39.24980 | -94.71260 | 3691 ft | 212 kts | 171° |
| 2026-04-20 13:39 | 39.23469 | -94.70734 | 3956 ft | 237 kts | 174° |
| 2026-04-20 13:40 | 39.21763 | -94.70338 | 4358 ft | 257 kts | 176° |
| 2026-04-20 13:40 | 39.19971 | -94.69973 | 5242 ft | 263 kts | 176° |
| 2026-04-20 13:40 | 39.18146 | -94.69601 | 6108 ft | 269 kts | 176° |
| 2026-04-20 13:40 | 39.16275 | -94.69215 | 6940 ft | 275 kts | 176° |
| 2026-04-20 13:41 | 39.14371 | -94.68816 | 7734 ft | 280 kts | 175° |
| 2026-04-20 13:41 | 39.12429 | -94.68404 | 8525 ft | 285 kts | 175° |
| 2026-04-20 13:41 | 39.10453 | -94.67980 | 9308 ft | 292 kts | 175° |
| 2026-04-20 13:41 | 39.08429 | -94.67544 | 10124 ft | 297 kts | 175° |
| 2026-04-20 13:42 | 39.06332 | -94.67094 | 10525 ft | 317 kts | 175° |
| 2026-04-20 13:42 | 39.01668 | -94.66094 | 11197 ft | 355 kts | 174° |
| 2026-04-20 13:42 | 38.99213 | -94.65559 | 11906 ft | 360 kts | 174° |
| 2026-04-20 13:43 | 38.96738 | -94.65017 | 12705 ft | 362 kts | 174° |
| 2026-04-20 13:43 | 38.94241 | -94.64472 | 13516 ft | 366 kts | 174° |
| 2026-04-20 13:43 | 38.91715 | -94.63923 | 14309 ft | 371 kts | 173° |
| 2026-04-20 13:43 | 38.89144 | -94.63366 | 14970 ft | 378 kts | 173° |
| 2026-04-20 13:44 | 38.86530 | -94.62801 | 15598 ft | 385 kts | 173° |
| 2026-04-20 13:44 | 38.83858 | -94.62224 | 16268 ft | 392 kts | 173° |
| 2026-04-20 13:44 | 38.81151 | -94.61639 | 16953 ft | 398 kts | 173° |
| 2026-04-20 13:44 | 38.78390 | -94.61042 | 17596 ft | 405 kts | 173° |
| 2026-04-20 13:45 | 38.75590 | -94.60438 | 18241 ft | 412 kts | 173° |
| 2026-04-20 13:45 | 38.72739 | -94.59823 | 18842 ft | 418 kts | 173° |
| 2026-04-20 13:45 | 38.69858 | -94.59203 | 19455 ft | 422 kts | 173° |
| 2026-04-20 13:45 | 38.66956 | -94.58544 | 20126 ft | 425 kts | 172° |
| 2026-04-20 13:46 | 38.64036 | -94.57833 | 20746 ft | 429 kts | 172° |
| 2026-04-20 13:46 | 38.61090 | -94.57100 | 21345 ft | 434 kts | 171° |
| 2026-04-20 13:46 | 38.58117 | -94.56360 | 21927 ft | 438 kts | 171° |
| 2026-04-20 13:46 | 38.55112 | -94.55616 | 22503 ft | 442 kts | 172° |
| 2026-04-20 13:47 | 38.52081 | -94.54872 | 23075 ft | 445 kts | 172° |
| 2026-04-20 13:47 | 38.49025 | -94.54125 | 23641 ft | 449 kts | 172° |
| 2026-04-20 13:47 | 38.45945 | -94.53375 | 24141 ft | 453 kts | 172° |
| 2026-04-20 13:47 | 38.42878 | -94.52629 | 24610 ft | 456 kts | 172° |
| 2026-04-20 13:48 | 38.39757 | -94.51871 | 25068 ft | 459 kts | 172° |
| 2026-04-20 13:48 | 38.36608 | -94.51106 | 25527 ft | 461 kts | 172° |
| 2026-04-20 13:48 | 38.33442 | -94.50338 | 25974 ft | 464 kts | 172° |
| 2026-04-20 13:48 | 38.30280 | -94.49407 | 26388 ft | 470 kts | 164° |
| 2026-04-20 13:49 | 38.27258 | -94.47754 | 26811 ft | 476 kts | 152° |
| 2026-04-20 13:49 | 38.24484 | -94.45438 | 27241 ft | 480 kts | 141° |
| 2026-04-20 13:49 | 38.22033 | -94.42532 | 27655 ft | 483 kts | 135° |
| 2026-04-20 13:49 | 38.19672 | -94.39471 | 28039 ft | 486 kts | 134° |
| 2026-04-20 13:50 | 38.17317 | -94.36366 | 28402 ft | 490 kts | 134° |
| 2026-04-20 13:50 | 38.14943 | -94.33240 | 28767 ft | 493 kts | 134° |
| 2026-04-20 13:50 | 38.12540 | -94.30106 | 29138 ft | 496 kts | 134° |
| 2026-04-20 13:50 | 38.10112 | -94.26971 | 29499 ft | 499 kts | 135° |
| 2026-04-20 13:51 | 38.07661 | -94.23834 | 29849 ft | 502 kts | 135° |
| 2026-04-20 13:51 | 38.05190 | -94.20686 | 30180 ft | 505 kts | 135° |
| 2026-04-20 13:51 | 38.02701 | -94.17525 | 30496 ft | 508 kts | 135° |
| 2026-04-20 13:51 | 38.00197 | -94.14349 | 30779 ft | 510 kts | 135° |
| 2026-04-20 13:52 | 37.97681 | -94.11161 | 31058 ft | 513 kts | 135° |
| 2026-04-20 13:52 | 37.95156 | -94.07964 | 31367 ft | 514 kts | 135° |
| 2026-04-20 13:52 | 37.92632 | -94.04768 | 31749 ft | 513 kts | 135° |
| 2026-04-20 13:52 | 37.90105 | -94.01573 | 32158 ft | 512 kts | 135° |
| 2026-04-20 13:53 | 37.87586 | -93.98388 | 32540 ft | 512 kts | 135° |
| 2026-04-20 13:53 | 37.85067 | -93.95208 | 32872 ft | 512 kts | 135° |
| 2026-04-20 13:53 | 37.82541 | -93.92022 | 33210 ft | 513 kts | 135° |
| 2026-04-20 13:53 | 37.80015 | -93.88840 | 33564 ft | 513 kts | 135° |
| 2026-04-20 13:54 | 37.77491 | -93.85664 | 33918 ft | 512 kts | 135° |
| 2026-04-20 13:54 | 37.74961 | -93.82482 | 34272 ft | 512 kts | 135° |
| 2026-04-20 13:54 | 37.72434 | -93.79308 | 34554 ft | 513 kts | 136° |
| 2026-04-20 13:54 | 37.69905 | -93.76136 | 34815 ft | 514 kts | 136° |
| 2026-04-20 13:55 | 37.67365 | -93.72952 | 35080 ft | 514 kts | 136° |
| 2026-04-20 13:55 | 37.64825 | -93.69772 | 35339 ft | 515 kts | 136° |
| 2026-04-20 13:55 | 37.62279 | -93.66587 | 35596 ft | 515 kts | 136° |
| 2026-04-20 13:55 | 37.59736 | -93.63408 | 35853 ft | 516 kts | 136° |
| 2026-04-20 13:56 | 37.57182 | -93.60221 | 36104 ft | 517 kts | 136° |
| 2026-04-20 13:56 | 37.54627 | -93.57034 | 36343 ft | 517 kts | 136° |
| 2026-04-20 13:56 | 37.52066 | -93.53844 | 36583 ft | 518 kts | 137° |
| 2026-04-20 13:56 | 37.49502 | -93.50652 | 36867 ft | 518 kts | 137° |
| 2026-04-20 13:57 | 37.46949 | -93.47477 | 37196 ft | 516 kts | 137° |
| 2026-04-20 13:57 | 37.44391 | -93.44299 | 37343 ft | 519 kts | 137° |
| 2026-04-20 13:57 | 37.39228 | -93.37894 | 37331 ft | 520 kts | 137° |
| 2026-04-20 13:58 | 37.34139 | -93.31503 | 37320 ft | 514 kts | 135° |
| 2026-04-20 13:58 | 37.29343 | -93.24920 | 37340 ft | 515 kts | 133° |
| 2026-04-20 13:59 | 37.24560 | -93.18221 | 37339 ft | 516 kts | 134° |
| 2026-04-20 13:59 | 37.19731 | -93.11542 | 37328 ft | 517 kts | 134° |
| 2026-04-20 14:00 | 37.14870 | -93.04877 | 37319 ft | 518 kts | 134° |
| 2026-04-20 14:00 | 37.09992 | -92.98206 | 37302 ft | 520 kts | 134° |
| 2026-04-20 14:01 | 37.05108 | -92.91532 | 37307 ft | 520 kts | 134° |
| 2026-04-20 14:01 | 37.00267 | -92.84777 | 37299 ft | 522 kts | 131° |
| 2026-04-20 14:02 | 36.95657 | -92.77749 | 37297 ft | 523 kts | 130° |
| 2026-04-20 14:02 | 36.91097 | -92.70669 | 37301 ft | 523 kts | 130° |
| 2026-04-20 14:03 | 36.86498 | -92.63610 | 37303 ft | 524 kts | 130° |
| 2026-04-20 14:03 | 36.81871 | -92.56581 | 37301 ft | 525 kts | 131° |
| 2026-04-20 14:04 | 36.79541 | -92.53055 | 37420 ft | 529 kts | 131° |
| 2026-04-20 14:04 | 36.77202 | -92.49520 | 37701 ft | 528 kts | 131° |
| 2026-04-20 14:04 | 36.74864 | -92.45987 | 37998 ft | 527 kts | 131° |
| 2026-04-20 14:04 | 36.72532 | -92.42465 | 38225 ft | 528 kts | 131° |
| 2026-04-20 14:05 | 36.70192 | -92.38934 | 38411 ft | 529 kts | 131° |
| 2026-04-20 14:05 | 36.67847 | -92.35400 | 38620 ft | 530 kts | 131° |
| 2026-04-20 14:05 | 36.65497 | -92.31861 | 38852 ft | 530 kts | 132° |
| 2026-04-20 14:05 | 36.63146 | -92.28324 | 39068 ft | 530 kts | 132° |
| 2026-04-20 14:06 | 36.60794 | -92.24789 | 39230 ft | 530 kts | 132° |
| 2026-04-20 14:06 | 36.58438 | -92.21252 | 39367 ft | 532 kts | 132° |
| 2026-04-20 14:06 | 36.56075 | -92.17710 | 39507 ft | 532 kts | 132° |
| 2026-04-20 14:06 | 36.53711 | -92.14168 | 39669 ft | 533 kts | 132° |
| 2026-04-20 14:07 | 36.51340 | -92.10621 | 39822 ft | 533 kts | 132° |
| 2026-04-20 14:07 | 36.48968 | -92.07075 | 39949 ft | 534 kts | 132° |
| 2026-04-20 14:07 | 36.46597 | -92.03534 | 40104 ft | 534 kts | 132° |
| 2026-04-20 14:07 | 36.44215 | -91.99982 | 40260 ft | 534 kts | 132° |
| 2026-04-20 14:08 | 36.41836 | -91.96436 | 40430 ft | 534 kts | 132° |
| 2026-04-20 14:08 | 36.39458 | -91.92896 | 40596 ft | 534 kts | 133° |
| 2026-04-20 14:08 | 36.37081 | -91.89362 | 40747 ft | 534 kts | 133° |
| 2026-04-20 14:08 | 36.34697 | -91.85820 | 40852 ft | 535 kts | 133° |
| 2026-04-20 14:09 | 36.32310 | -91.82278 | 40984 ft | 535 kts | 133° |
| 2026-04-20 14:09 | 36.29921 | -91.78737 | 41138 ft | 535 kts | 133° |
| 2026-04-20 14:09 | 36.27534 | -91.75202 | 41278 ft | 534 kts | 133° |
| 2026-04-20 14:09 | 36.25151 | -91.71677 | 41330 ft | 536 kts | 133° |
| 2026-04-20 14:10 | 36.20377 | -91.64627 | 41338 ft | 538 kts | 133° |
| 2026-04-20 14:10 | 36.15564 | -91.57528 | 41340 ft | 538 kts | 133° |
| 2026-04-20 14:11 | 36.10731 | -91.50460 | 41349 ft | 538 kts | 134° |
| 2026-04-20 14:11 | 36.05826 | -91.43486 | 41349 ft | 537 kts | 134° |
| 2026-04-20 14:12 | 36.00907 | -91.36545 | 41348 ft | 537 kts | 134° |
| 2026-04-20 14:12 | 35.95992 | -91.29595 | 41349 ft | 537 kts | 134° |
| 2026-04-20 14:13 | 35.91085 | -91.22652 | 41364 ft | 537 kts | 134° |
| 2026-04-20 14:13 | 35.86176 | -91.15716 | 41371 ft | 537 kts | 134° |
| 2026-04-20 14:14 | 35.81265 | -91.08793 | 41372 ft | 536 kts | 135° |
| 2026-04-20 14:14 | 35.76350 | -91.01880 | 41369 ft | 536 kts | 135° |
| 2026-04-20 14:15 | 35.71439 | -90.94972 | 41367 ft | 536 kts | 134° |
| 2026-04-20 14:15 | 35.66550 | -90.88050 | 41371 ft | 536 kts | 134° |
| 2026-04-20 14:16 | 35.61660 | -90.81125 | 41372 ft | 536 kts | 135° |
| 2026-04-20 14:16 | 35.56764 | -90.74209 | 41358 ft | 536 kts | 135° |
| 2026-04-20 14:17 | 35.51862 | -90.67307 | 41366 ft | 537 kts | 135° |
| 2026-04-20 14:17 | 35.46948 | -90.60403 | 41345 ft | 537 kts | 135° |
| 2026-04-20 14:18 | 35.42025 | -90.53500 | 41349 ft | 537 kts | 135° |
| 2026-04-20 14:18 | 35.37099 | -90.46607 | 41360 ft | 538 kts | 135° |
| 2026-04-20 14:19 | 35.32168 | -90.39719 | 41350 ft | 538 kts | 135° |
| 2026-04-20 14:19 | 35.27223 | -90.32827 | 41365 ft | 539 kts | 135° |
| 2026-04-20 14:20 | 35.22271 | -90.25939 | 41369 ft | 539 kts | 135° |
| 2026-04-20 14:20 | 35.18155 | -90.20223 | 41368 ft | 539 kts | 135° |
| 2026-04-20 14:21 | 35.12355 | -90.12187 | 41364 ft | 540 kts | 135° |
| 2026-04-20 14:21 | 35.07414 | -90.05354 | 41367 ft | 540 kts | 135° |
| 2026-04-20 14:22 | 35.02445 | -89.98497 | 41365 ft | 540 kts | 135° |
| 2026-04-20 14:22 | 34.98265 | -89.92739 | 41364 ft | 540 kts | 135° |
| 2026-04-20 14:23 | 34.93282 | -89.85888 | 41366 ft | 540 kts | 136° |
| 2026-04-20 14:23 | 34.88294 | -89.79044 | 41363 ft | 540 kts | 136° |
| 2026-04-20 14:24 | 34.83335 | -89.72252 | 41364 ft | 540 kts | 136° |
| 2026-04-20 14:24 | 34.78345 | -89.65432 | 41362 ft | 540 kts | 136° |
| 2026-04-20 14:25 | 34.73344 | -89.58609 | 41360 ft | 540 kts | 136° |
| 2026-04-20 14:25 | 34.68348 | -89.51808 | 41370 ft | 540 kts | 136° |
| 2026-04-20 14:26 | 34.63346 | -89.45012 | 41377 ft | 539 kts | 136° |
| 2026-04-20 14:26 | 34.58337 | -89.38219 | 41379 ft | 539 kts | 136° |
| 2026-04-20 14:27 | 34.53336 | -89.31450 | 41383 ft | 539 kts | 136° |
| 2026-04-20 14:27 | 34.48319 | -89.24674 | 41378 ft | 539 kts | 136° |
| 2026-04-20 14:28 | 34.43300 | -89.17907 | 41374 ft | 539 kts | 136° |
| 2026-04-20 14:28 | 34.38285 | -89.11159 | 41372 ft | 539 kts | 136° |
| 2026-04-20 14:29 | 34.33263 | -89.04415 | 41377 ft | 539 kts | 136° |
| 2026-04-20 14:29 | 34.28233 | -88.97673 | 41384 ft | 539 kts | 137° |
| 2026-04-20 14:30 | 34.23200 | -88.90940 | 41376 ft | 539 kts | 137° |
| 2026-04-20 14:30 | 34.18169 | -88.84222 | 41386 ft | 539 kts | 137° |
| 2026-04-20 14:31 | 34.13131 | -88.77508 | 41385 ft | 539 kts | 137° |
| 2026-04-20 14:31 | 34.08092 | -88.70805 | 41382 ft | 539 kts | 137° |
| 2026-04-20 14:32 | 34.03047 | -88.64108 | 41379 ft | 539 kts | 137° |
| 2026-04-20 14:32 | 33.98001 | -88.57423 | 41369 ft | 540 kts | 137° |
| 2026-04-20 14:33 | 33.92941 | -88.50731 | 41364 ft | 540 kts | 137° |
| 2026-04-20 14:33 | 33.87884 | -88.44055 | 41361 ft | 540 kts | 137° |
| 2026-04-20 14:34 | 33.82820 | -88.37384 | 41355 ft | 540 kts | 137° |
| 2026-04-20 14:34 | 33.77791 | -88.30770 | 41354 ft | 540 kts | 137° |
| 2026-04-20 14:35 | 33.72717 | -88.24111 | 41362 ft | 540 kts | 137° |
| 2026-04-20 14:35 | 33.67639 | -88.17458 | 41359 ft | 540 kts | 137° |
| 2026-04-20 14:36 | 33.62561 | -88.10818 | 41369 ft | 540 kts | 138° |
| 2026-04-20 14:36 | 33.57480 | -88.04186 | 41373 ft | 540 kts | 138° |
| 2026-04-20 14:37 | 33.52396 | -87.97564 | 41375 ft | 540 kts | 138° |
| 2026-04-20 14:37 | 33.47310 | -87.90950 | 41379 ft | 540 kts | 138° |
| 2026-04-20 14:38 | 33.42222 | -87.84347 | 41392 ft | 539 kts | 138° |
| 2026-04-20 14:38 | 33.37128 | -87.77747 | 41388 ft | 539 kts | 138° |
| 2026-04-20 14:39 | 33.32031 | -87.71156 | 41403 ft | 539 kts | 138° |
| 2026-04-20 14:39 | 33.26934 | -87.64579 | 41408 ft | 539 kts | 138° |
| 2026-04-20 14:40 | 33.21830 | -87.58004 | 41400 ft | 539 kts | 138° |
| 2026-04-20 14:40 | 33.16726 | -87.51439 | 41401 ft | 540 kts | 138° |
| 2026-04-20 14:41 | 33.11618 | -87.44883 | 41401 ft | 539 kts | 138° |
| 2026-04-20 14:41 | 33.06503 | -87.38330 | 41398 ft | 540 kts | 139° |
| 2026-04-20 14:42 | 33.01387 | -87.31788 | 41385 ft | 539 kts | 139° |
| 2026-04-20 14:42 | 32.96302 | -87.25297 | 41387 ft | 539 kts | 139° |
| 2026-04-20 14:43 | 32.91183 | -87.18773 | 41380 ft | 539 kts | 139° |
| 2026-04-20 14:43 | 32.86031 | -87.12224 | 41398 ft | 544 kts | 139° |
| 2026-04-20 14:44 | 32.80827 | -87.05621 | 41393 ft | 549 kts | 139° |
| 2026-04-20 14:44 | 32.75576 | -86.98968 | 41397 ft | 554 kts | 139° |
| 2026-04-20 14:45 | 32.70281 | -86.92268 | 41381 ft | 558 kts | 139° |
| 2026-04-20 14:45 | 32.64964 | -86.85552 | 41377 ft | 559 kts | 139° |
| 2026-04-20 14:46 | 32.59627 | -86.78825 | 41376 ft | 560 kts | 139° |
| 2026-04-20 14:46 | 32.54289 | -86.72109 | 41371 ft | 559 kts | 139° |
| 2026-04-20 14:47 | 32.48958 | -86.65415 | 41372 ft | 558 kts | 139° |
| 2026-04-20 14:48 | 32.40979 | -86.55420 | 41367 ft | 556 kts | 139° |
| 2026-04-20 14:48 | 32.35676 | -86.48792 | 41377 ft | 554 kts | 139° |
| 2026-04-20 14:49 | 32.30373 | -86.42176 | 41382 ft | 553 kts | 139° |
| 2026-04-20 14:49 | 32.25078 | -86.35580 | 41387 ft | 553 kts | 139° |
| 2026-04-20 14:50 | 32.20286 | -86.28519 | 41373 ft | 561 kts | 123° |
| 2026-04-20 14:50 | 32.16411 | -86.20529 | 41375 ft | 561 kts | 122° |
| 2026-04-20 14:51 | 32.12597 | -86.12489 | 41372 ft | 561 kts | 122° |
| 2026-04-20 14:51 | 32.08722 | -86.04502 | 41375 ft | 561 kts | 123° |
| 2026-04-20 14:52 | 32.04804 | -85.96557 | 41375 ft | 561 kts | 123° |
| 2026-04-20 14:52 | 32.00874 | -85.88621 | 41374 ft | 561 kts | 123° |
| 2026-04-20 14:53 | 31.96939 | -85.80680 | 41372 ft | 561 kts | 123° |
| 2026-04-20 14:53 | 31.93004 | -85.72746 | 41375 ft | 561 kts | 123° |
| 2026-04-20 14:54 | 31.89062 | -85.64811 | 41367 ft | 562 kts | 123° |
| 2026-04-20 14:54 | 31.85113 | -85.56881 | 41373 ft | 562 kts | 123° |
| 2026-04-20 14:55 | 31.81157 | -85.48954 | 41369 ft | 562 kts | 123° |
| 2026-04-20 14:55 | 31.77221 | -85.41085 | 41369 ft | 562 kts | 123° |
| 2026-04-20 14:56 | 31.73255 | -85.33171 | 41369 ft | 562 kts | 123° |
| 2026-04-20 14:56 | 31.69283 | -85.25261 | 41373 ft | 562 kts | 123° |
| 2026-04-20 14:57 | 31.65305 | -85.17357 | 41372 ft | 562 kts | 123° |
| 2026-04-20 14:57 | 31.61326 | -85.09464 | 41373 ft | 562 kts | 123° |
| 2026-04-20 14:58 | 31.57351 | -85.01581 | 41377 ft | 562 kts | 122° |
| 2026-04-20 14:58 | 31.54301 | -84.93145 | 41386 ft | 563 kts | 109° |
| 2026-04-20 14:59 | 31.51829 | -84.84433 | 41381 ft | 563 kts | 108° |
| 2026-04-20 14:59 | 31.49315 | -84.75737 | 41375 ft | 563 kts | 109° |
| 2026-04-20 15:00 | 31.46684 | -84.67091 | 41380 ft | 563 kts | 110° |
| 2026-04-20 15:00 | 31.44010 | -84.58466 | 41371 ft | 563 kts | 110° |
| 2026-04-20 15:01 | 31.41336 | -84.49839 | 41369 ft | 563 kts | 110° |
| 2026-04-20 15:01 | 31.38667 | -84.41221 | 41369 ft | 563 kts | 110° |
| 2026-04-20 15:02 | 31.35994 | -84.32602 | 41367 ft | 563 kts | 110° |
| 2026-04-20 15:02 | 31.33313 | -84.23986 | 41366 ft | 563 kts | 110° |
| 2026-04-20 15:03 | 31.30629 | -84.15384 | 41367 ft | 563 kts | 110° |
| 2026-04-20 15:03 | 31.27940 | -84.06788 | 41368 ft | 563 kts | 110° |
| 2026-04-20 15:04 | 31.25239 | -83.98206 | 41363 ft | 563 kts | 110° |
| 2026-04-20 15:04 | 31.22549 | -83.89684 | 41364 ft | 562 kts | 110° |
| 2026-04-20 15:05 | 31.19839 | -83.81112 | 41366 ft | 562 kts | 111° |
| 2026-04-20 15:05 | 31.17126 | -83.72553 | 41367 ft | 562 kts | 111° |
| 2026-04-20 15:06 | 31.14408 | -83.64000 | 41365 ft | 562 kts | 111° |
| 2026-04-20 15:06 | 31.11683 | -83.55449 | 41358 ft | 562 kts | 111° |
| 2026-04-20 15:07 | 31.08956 | -83.46915 | 41335 ft | 562 kts | 111° |
| 2026-04-20 15:07 | 31.06246 | -83.38451 | 41305 ft | 549 kts | 111° |
| 2026-04-20 15:08 | 31.03575 | -83.30134 | 41331 ft | 549 kts | 111° |
| 2026-04-20 15:08 | 31.00875 | -83.21753 | 41335 ft | 555 kts | 111° |
| 2026-04-20 15:09 | 30.98144 | -83.13291 | 41338 ft | 560 kts | 111° |
| 2026-04-20 15:09 | 30.95391 | -83.04784 | 41339 ft | 563 kts | 111° |
| 2026-04-20 15:10 | 30.92620 | -82.96241 | 41339 ft | 564 kts | 111° |
| 2026-04-20 15:10 | 30.89715 | -82.87828 | 41327 ft | 554 kts | 122° |
| 2026-04-20 15:10 | 30.87519 | -82.84212 | 41362 ft | 540 kts | 139° |
| 2026-04-20 15:11 | 30.84754 | -82.81345 | 41366 ft | 528 kts | 149° |
| 2026-04-20 15:11 | 30.79879 | -82.77076 | 41364 ft | 527 kts | 150° |
| 2026-04-20 15:12 | 30.73060 | -82.71115 | 41374 ft | 528 kts | 150° |
| 2026-04-20 15:12 | 30.67227 | -82.65897 | 41386 ft | 530 kts | 149° |
| 2026-04-20 15:13 | 30.62348 | -82.61499 | 41396 ft | 530 kts | 149° |
| 2026-04-20 15:13 | 30.56512 | -82.56243 | 41399 ft | 532 kts | 149° |
| 2026-04-20 15:14 | 30.50693 | -82.51020 | 41393 ft | 533 kts | 149° |
| 2026-04-20 15:14 | 30.44819 | -82.45760 | 41378 ft | 534 kts | 149° |
| 2026-04-20 15:15 | 30.38937 | -82.40501 | 41364 ft | 534 kts | 149° |
| 2026-04-20 15:15 | 30.33046 | -82.35240 | 41359 ft | 535 kts | 149° |
| 2026-04-20 15:16 | 30.27158 | -82.29989 | 41360 ft | 535 kts | 149° |
| 2026-04-20 15:16 | 30.24208 | -82.27362 | 41241 ft | 537 kts | 149° |
| 2026-04-20 15:16 | 30.21169 | -82.24825 | 40615 ft | 535 kts | 159° |
| 2026-04-20 15:16 | 30.17842 | -82.23130 | 40011 ft | 511 kts | 175° |
| 2026-04-20 15:17 | 30.14419 | -82.22336 | 39411 ft | 498 kts | 183° |
| 2026-04-20 15:17 | 30.10985 | -82.21735 | 38674 ft | 500 kts | 184° |
| 2026-04-20 15:17 | 30.07547 | -82.21143 | 37958 ft | 500 kts | 183° |
| 2026-04-20 15:17 | 30.04111 | -82.20518 | 37282 ft | 500 kts | 182° |
| 2026-04-20 15:18 | 30.00682 | -82.19858 | 36613 ft | 500 kts | 181° |
| 2026-04-20 15:18 | 29.97251 | -82.19176 | 35915 ft | 499 kts | 181° |
| 2026-04-20 15:18 | 29.93828 | -82.18494 | 35160 ft | 500 kts | 181° |
| 2026-04-20 15:18 | 29.90399 | -82.17814 | 34418 ft | 500 kts | 180° |
| 2026-04-20 15:19 | 29.86975 | -82.17132 | 33575 ft | 500 kts | 180° |
| 2026-04-20 15:19 | 29.83550 | -82.16450 | 32717 ft | 500 kts | 180° |
| 2026-04-20 15:19 | 29.80121 | -82.15766 | 31983 ft | 498 kts | 179° |
| 2026-04-20 15:19 | 29.76727 | -82.15085 | 31398 ft | 493 kts | 179° |
| 2026-04-20 15:20 | 29.73370 | -82.14413 | 30816 ft | 488 kts | 179° |
| 2026-04-20 15:20 | 29.70034 | -82.13748 | 30204 ft | 484 kts | 179° |
| 2026-04-20 15:20 | 29.66771 | -82.13098 | 29531 ft | 479 kts | 179° |
| 2026-04-20 15:20 | 29.63507 | -82.12449 | 28918 ft | 473 kts | 178° |
| 2026-04-20 15:21 | 29.60291 | -82.11811 | 28314 ft | 467 kts | 178° |
| 2026-04-20 15:21 | 29.57099 | -82.11179 | 27696 ft | 462 kts | 178° |
| 2026-04-20 15:21 | 29.53939 | -82.10554 | 27095 ft | 457 kts | 178° |
| 2026-04-20 15:21 | 29.50823 | -82.09937 | 26514 ft | 453 kts | 178° |
| 2026-04-20 15:22 | 29.47757 | -82.09328 | 26237 ft | 441 kts | 178° |
| 2026-04-20 15:22 | 29.44742 | -82.08729 | 25671 ft | 437 kts | 178° |
| 2026-04-20 15:22 | 29.41781 | -82.08144 | 25003 ft | 428 kts | 178° |
| 2026-04-20 15:22 | 29.38893 | -82.07574 | 24463 ft | 416 kts | 178° |
| 2026-04-20 15:23 | 29.36073 | -82.07017 | 23946 ft | 408 kts | 178° |
| 2026-04-20 15:23 | 29.33283 | -82.06470 | 23410 ft | 407 kts | 177° |
| 2026-04-20 15:23 | 29.30505 | -82.05805 | 22855 ft | 413 kts | 168° |
| 2026-04-20 15:23 | 29.27885 | -82.04371 | 22361 ft | 418 kts | 156° |
| 2026-04-20 15:24 | 29.25363 | -82.02735 | 21847 ft | 416 kts | 155° |
| 2026-04-20 15:24 | 29.22857 | -82.01093 | 21344 ft | 414 kts | 155° |
| 2026-04-20 15:24 | 29.20358 | -81.99473 | 20844 ft | 411 kts | 156° |
| 2026-04-20 15:24 | 29.17865 | -81.97882 | 20352 ft | 409 kts | 156° |
| 2026-04-20 15:25 | 29.15381 | -81.96313 | 19860 ft | 407 kts | 156° |
| 2026-04-20 15:25 | 29.12897 | -81.94753 | 19378 ft | 406 kts | 156° |
| 2026-04-20 15:25 | 29.10425 | -81.93203 | 18883 ft | 404 kts | 155° |
| 2026-04-20 15:25 | 29.07970 | -81.91663 | 18364 ft | 402 kts | 155° |
| 2026-04-20 15:26 | 29.05662 | -81.89861 | 17807 ft | 404 kts | 141° |
| 2026-04-20 15:26 | 29.03688 | -81.87681 | 17334 ft | 393 kts | 138° |
| 2026-04-20 15:26 | 29.01769 | -81.85520 | 16853 ft | 384 kts | 139° |
| 2026-04-20 15:26 | 28.99819 | -81.83386 | 16388 ft | 383 kts | 139° |
| 2026-04-20 15:27 | 28.97922 | -81.81316 | 15960 ft | 383 kts | 136° |
| 2026-04-20 15:27 | 28.96196 | -81.79006 | 15590 ft | 381 kts | 129° |
| 2026-04-20 15:27 | 28.94620 | -81.76592 | 15218 ft | 378 kts | 127° |
| 2026-04-20 15:27 | 28.93074 | -81.74168 | 14846 ft | 376 kts | 127° |
| 2026-04-20 15:28 | 28.91521 | -81.71783 | 14476 ft | 373 kts | 128° |
| 2026-04-20 15:28 | 28.89958 | -81.69440 | 14123 ft | 370 kts | 128° |
| 2026-04-20 15:28 | 28.88392 | -81.67120 | 13688 ft | 369 kts | 128° |
| 2026-04-20 15:28 | 28.86829 | -81.64811 | 13305 ft | 366 kts | 128° |
| 2026-04-20 15:29 | 28.85282 | -81.62525 | 12937 ft | 362 kts | 128° |
| 2026-04-20 15:29 | 28.83749 | -81.60259 | 12573 ft | 359 kts | 128° |
| 2026-04-20 15:29 | 28.82235 | -81.58022 | 12216 ft | 354 kts | 128° |
| 2026-04-20 15:29 | 28.80742 | -81.55817 | 11863 ft | 349 kts | 128° |
| 2026-04-20 15:30 | 28.79068 | -81.53867 | 11492 ft | 342 kts | 147° |
| 2026-04-20 15:30 | 28.77021 | -81.52551 | 11196 ft | 334 kts | 154° |
| 2026-04-20 15:30 | 28.74998 | -81.51366 | 10909 ft | 320 kts | 155° |
| 2026-04-20 15:30 | 28.73049 | -81.50230 | 10630 ft | 310 kts | 155° |
| 2026-04-20 15:31 | 28.71158 | -81.49119 | 10340 ft | 301 kts | 154° |
| 2026-04-20 15:31 | 28.69316 | -81.48028 | 10076 ft | 297 kts | 154° |
| 2026-04-20 15:31 | 28.67478 | -81.46934 | 9754 ft | 299 kts | 154° |
| 2026-04-20 15:31 | 28.65631 | -81.45830 | 9456 ft | 299 kts | 153° |
| 2026-04-20 15:32 | 28.63793 | -81.44731 | 9160 ft | 298 kts | 153° |
| 2026-04-20 15:32 | 28.61960 | -81.43635 | 8851 ft | 296 kts | 153° |
| 2026-04-20 15:32 | 28.60117 | -81.42722 | 8530 ft | 284 kts | 169° |
| 2026-04-20 15:32 | 28.58205 | -81.42459 | 8312 ft | 271 kts | 177° |
| 2026-04-20 15:33 | 28.56349 | -81.42338 | 8036 ft | 263 kts | 181° |
| 2026-04-20 15:33 | 28.54529 | -81.42338 | 7797 ft | 261 kts | 182° |
| 2026-04-20 15:33 | 28.52718 | -81.42362 | 7546 ft | 260 kts | 182° |
| 2026-04-20 15:33 | 28.50916 | -81.42382 | 7295 ft | 259 kts | 181° |
| 2026-04-20 15:34 | 28.49114 | -81.42398 | 7065 ft | 258 kts | 181° |
| 2026-04-20 15:34 | 28.47352 | -81.42407 | 6817 ft | 255 kts | 180° |
| 2026-04-20 15:34 | 28.45576 | -81.42411 | 6567 ft | 247 kts | 181° |
| 2026-04-20 15:34 | 28.43892 | -81.42414 | 6274 ft | 237 kts | 180° |
| 2026-04-20 15:35 | 28.42288 | -81.42416 | 6076 ft | 232 kts | 180° |
| 2026-04-20 15:35 | 28.40682 | -81.42417 | 5853 ft | 230 kts | 180° |
| 2026-04-20 15:35 | 28.39083 | -81.42418 | 5628 ft | 229 kts | 179° |
| 2026-04-20 15:35 | 28.37497 | -81.42418 | 5368 ft | 226 kts | 179° |
| 2026-04-20 15:36 | 28.35951 | -81.42418 | 5148 ft | 220 kts | 179° |
| 2026-04-20 15:36 | 28.34436 | -81.42418 | 4933 ft | 215 kts | 179° |
| 2026-04-20 15:36 | 28.32947 | -81.42418 | 4735 ft | 213 kts | 178° |
| 2026-04-20 15:36 | 28.31468 | -81.42417 | 4580 ft | 213 kts | 177° |
| 2026-04-20 15:37 | 28.29986 | -81.42417 | 4336 ft | 213 kts | 177° |
| 2026-04-20 15:37 | 28.28529 | -81.42379 | 4153 ft | 205 kts | 169° |
| 2026-04-20 15:37 | 28.27199 | -81.41974 | 3954 ft | 193 kts | 149° |
| 2026-04-20 15:37 | 28.26141 | -81.41137 | 3782 ft | 181 kts | 128° |
| 2026-04-20 15:38 | 28.25383 | -81.40041 | 3620 ft | 173 kts | 114° |
| 2026-04-20 15:38 | 28.24919 | -81.38808 | 3480 ft | 168 kts | 99° |
| 2026-04-20 15:38 | 28.24762 | -81.37514 | 3355 ft | 164 kts | 87° |
| 2026-04-20 15:38 | 28.24893 | -81.36266 | 3185 ft | 156 kts | 72° |
| 2026-04-20 15:39 | 28.25285 | -81.35127 | 3038 ft | 156 kts | 59° |
| 2026-04-20 15:39 | 28.25911 | -81.34127 | 2919 ft | 154 kts | 46° |
| 2026-04-20 15:39 | 28.26710 | -81.33356 | 2744 ft | 146 kts | 33° |
| 2026-04-20 15:39 | 28.27577 | -81.32851 | 2588 ft | 134 kts | 21° |
| 2026-04-20 15:40 | 28.28492 | -81.32579 | 2587 ft | 152 kts | 13° |
| 2026-04-20 15:40 | 28.29649 | -81.32520 | 2618 ft | 171 kts | 2° |
| 2026-04-20 15:40 | 28.30804 | -81.32572 | 2363 ft | 163 kts | 1° |
| 2026-04-20 15:40 | 28.31868 | -81.32657 | 2109 ft | 143 kts | 2° |
| 2026-04-20 15:41 | 28.32810 | -81.32699 | 1840 ft | 128 kts | 2° |
| 2026-04-20 15:41 | 28.33655 | -81.32753 | 1571 ft | 119 kts | 2° |
| 2026-04-20 15:41 | 28.34544 | -81.32803 | 1245 ft | 141 kts | 5° |
| 2026-04-20 15:41 | 28.35487 | -81.32811 | 1203 ft | 128 kts | 7° |
| 2026-04-20 15:42 | 28.36342 | -81.32729 | 1144 ft | 122 kts | 9° |
| 2026-04-20 15:42 | 28.37202 | -81.32654 | 980 ft | 126 kts | 8° |
| 2026-04-20 15:42 | 28.38091 | -81.32636 | 795 ft | 130 kts | 4° |
| 2026-04-20 15:42 | 28.38980 | -81.32651 | 643 ft | 129 kts | 7° |
| 2026-04-20 15:43 | 28.39886 | -81.32645 | 507 ft | 128 kts | 4° |
| 2026-04-20 15:43 | 28.40795 | -81.32657 | 310 ft | 135 kts | 2° |
| 2026-04-20 15:43 | 28.41711 | -81.32671 | 139 ft | 131 kts | 4° |
| 2026-04-20 15:43 | 28.42535 | -81.32674 | 103 ft | 81 kts | 359° |
| 2026-04-20 15:44 | 28.42627 | -81.32674 | 102 ft | 46 kts | 360° |